Time;durP1;ratioP1;P1;durP2;ratioP2;P2;SDS_P1;SDS_P2;PMS_P1;PMS_P2;Temp;Humidity;BMP_temperature;BMP_pressure;BME280_temperature;BME280_humidity;BME280_pressure;Samples;Min_cycle;Max_cycle;Signal;HPM_P1;HPM_P2
2021/08/25 00:05:20;;;;;;;11.50;6.70;;;;;;;11.04;70.64;100687.34;110682;1228;107856;-75
2021/08/25 00:09:26;;;;;;;13.10;6.30;;;;;;;11.01;70.60;100689.71;110291;1230;137108;-77
2021/08/25 00:13:32;;;;;;;11.30;6.90;;;;;;;10.97;70.97;100688.79;109862;1234;108196;-78
2021/08/25 00:21:45;;;;;;;14.70;6.90;;;;;;;10.97;70.80;100688.25;111391;1214;636183;-76
2021/08/25 00:25:54;;;;;;;11.00;6.60;;;;;;;10.92;71.13;100673.58;112109;1215;93908;-77
2021/08/25 00:30:03;;;;;;;10.90;6.60;;;;;;;10.88;71.12;100670.88;111967;1212;93955;-77
2021/08/25 00:38:23;;;;;;;12.40;6.70;;;;;;;10.83;71.39;100665.31;111627;1221;107259;-76
2021/08/25 00:47:00;;;;;;;12.80;6.40;;;;;;;10.72;71.35;100656.01;110247;1224;137264;-77
2021/08/25 00:51:05;;;;;;;9.60;6.20;;;;;;;10.65;71.35;100649.08;110099;1225;94081;-76
2021/08/25 00:58:37;;;;;;;11.70;6.50;;;;;;;10.56;71.72;100647.90;111364;1220;635433;-75
2021/08/25 01:03:30;;;;;;;13.80;6.10;;;;;;;10.53;71.91;100648.67;112454;1201;93886;-77
2021/08/25 01:07:14;;;;;;;10.90;6.30;;;;;;;10.54;71.96;100648.66;112463;1208;93998;-77
2021/08/25 01:35:56;;;;;;;11.80;6.50;;;;;;;10.19;72.48;100650.03;111394;1220;637140;-76
2021/08/25 01:39:43;;;;;;;;;;;;;;;;;;;;;
2021/08/25 01:43:53;;;;;;;11.10;6.20;;;;;;;10.07;72.60;100648.05;112168;1207;123476;-76
2021/08/25 01:52:11;;;;;;;10.50;5.90;;;;;;;10.01;72.82;100641.58;111662;1215;106084;-76
2021/08/25 02:00:52;;;;;;;9.60;5.70;;;;;;;9.92;73.05;100635.55;110022;1225;137912;-76
2021/08/25 02:04:57;;;;;;;12.30;6.80;;;;;;;9.92;73.10;100635.55;109929;1226;93935;-77
2021/08/25 02:12:37;;;;;;;;;;;;;;;;;;;;;
2021/08/25 02:20:59;;;;;;;12.50;6.40;;;;;;;9.74;73.44;100614.80;111488;1216;636638;-75
2021/08/25 02:29:18;;;;;;;11.30;6.00;;;;;;;9.61;73.55;100604.48;112083;1209;93896;-76
2021/08/25 02:33:03;;;;;;;14.80;6.70;;;;;;;9.58;73.87;100603.51;112136;1206;108204;-77
2021/08/25 02:53:23;;;;;;;;;;;;;;;;;;;;;
2021/08/25 02:57:17;;;;;;;;;;;;;;;;;;;;;
2021/08/25 03:01:27;;;;;;;18.80;11.10;;;;;;;9.52;74.13;100591.15;112149;1207;136666;-76
2021/08/25 03:05:36;;;;;;;12.30;6.80;;;;;;;9.51;74.08;100590.11;112331;1202;108528;-75
2021/08/25 03:09:44;;;;;;;9.70;6.10;;;;;;;9.47;74.03;100589.68;112132;1205;136263;-76
2021/08/25 03:18:06;;;;;;;12.20;6.10;;;;;;;9.36;74.38;100578.84;113768;1198;92042;-77
2021/08/25 03:21:43;;;;;;;;;;;;;;;;;;;;;
2021/08/25 03:34:46;;;;;;;14.60;7.00;;;;;;;9.30;74.48;100569.41;112335;1215;109548;-76
2021/08/25 03:42:59;;;;;;;11.80;6.90;;;;;;;9.22;74.27;100572.21;111653;1221;92722;-76
2021/08/25 03:50:31;;;;;;;12.40;7.10;;;;;;;9.22;74.40;100577.59;111380;1221;636352;-76
2021/08/25 03:54:31;;;;;;;;;;;;;;;;;;;;;
2021/08/25 03:58:48;;;;;;;13.60;7.10;;;;;;;9.20;74.60;100567.73;111954;1218;136166;-77
2021/08/25 04:02:57;;;;;;;14.20;7.90;;;;;;;9.19;74.69;100571.39;111590;1212;136782;-77
2021/08/25 04:07:05;;;;;;;14.90;7.20;;;;;;;9.24;74.80;100569.19;111389;1215;107196;-77
2021/08/25 04:23:50;;;;;;;15.20;8.00;;;;;;;9.43;74.53;100570.70;109701;1228;110104;-77
2021/08/25 04:31:47;;;;;;;13.60;7.90;;;;;;;9.47;74.35;100568.51;111461;1220;636078;-78
2021/08/25 04:44:14;;;;;;;14.80;7.50;;;;;;;9.60;74.07;100569.27;112090;1215;106391;-76
2021/08/25 04:52:30;;;;;;;15.70;8.10;;;;;;;9.87;73.82;100564.29;111545;1215;137658;-76
2021/08/25 05:01:11;;;;;;;12.30;7.00;;;;;;;11.57;72.06;100560.13;110710;1220;136924;-77
2021/08/25 05:04:44;;;;;;;;;;;;;;;;;;;;;
2021/08/25 05:13:16;;;;;;;13.50;7.10;;;;;;;11.49;70.37;100561.04;111355;1222;635379;-76
2021/08/25 05:17:24;;;;;;;17.60;11.10;;;;;;;11.38;70.28;100561.04;111930;1207;136870;-76
2021/08/25 05:21:34;;;;;;;12.90;6.90;;;;;;;11.31;70.50;100555.70;111881;1218;93976;-77
2021/08/25 05:34:29;;;;;;;11.90;6.40;;;;;;;11.41;70.59;100544.23;110651;1220;109347;-76
2021/08/25 05:38:13;;;;;;;;;;;;;;;;;;;;;
2021/08/25 05:42:36;;;;;;;13.60;6.80;;;;;;;11.63;70.33;100537.45;110186;1230;137113;-76
2021/08/25 05:58:47;;;;;;;12.70;7.80;;;;;;;12.30;69.57;100526.04;112007;1217;93875;-77
2021/08/25 06:02:31;;;;;;;12.30;6.90;;;;;;;12.42;69.22;100528.25;111967;1212;136362;-77
2021/08/25 06:11:10;;;;;;;12.40;6.90;;;;;;;12.65;68.52;100525.11;111586;1212;635259;-76
2021/08/25 06:15:20;;;;;;;12.30;6.80;;;;;;;12.82;68.50;100521.89;112321;1205;93851;-77
2021/08/25 06:19:29;;;;;;;10.80;7.10;;;;;;;13.07;68.38;100519.70;112034;1208;136545;-77
2021/08/25 06:23:38;;;;;;;14.10;7.50;;;;;;;13.49;67.84;100521.09;111953;1218;107127;-77
2021/08/25 06:28:12;;;;;;;12.00;6.90;;;;;;;14.35;67.58;100514.34;111685;1215;106478;-77
2021/08/25 06:31:45;;;;;;;;;;;;;;;;;;;;;
2021/08/25 06:36:05;;;;;;;;;;;;;;;;;;;;;
2021/08/25 06:39:41;;;;;;;9.90;7.10;;;;;;;17.78;60.35;100501.25;111093;1222;94049;-76
2021/08/25 06:47:15;;;;;;;11.30;6.40;;;;;;;19.54;57.55;100485.83;110838;1221;108013;-77
2021/08/25 06:51:22;;;;;;;13.90;7.20;;;;;;;20.38;56.26;100482.45;110926;1223;137367;-76
2021/08/25 06:54:48;;;;;;;;;;;;;;;;;;;;;
2021/08/25 06:58:39;;;;;;;;;;;;;;;22.98;51.49;100461.98;111030;1222;95041;-77
2021/08/25 07:01:25;;;;;;;8.50;6.10;;;;;;;23.08;50.18;100457.77;111361;1219;123240;-77
2021/08/25 07:04:28;;;;;;;9.40;6.00;;;;;;;23.45;49.51;100449.74;111869;1219;106172;-76
2021/08/25 07:07:27;;;;;;;8.60;5.80;;;;;;;23.93;49.31;100446.64;111675;1221;139798;-76
2021/08/25 07:10:57;;;;;;;;;;;;;;;;;;;;;
2021/08/25 07:14:08;;;;;;;7.40;5.50;;;;;;;25.35;46.79;100444.36;111835;1211;137230;-74
2021/08/25 07:17:25;;;;;;;9.00;5.40;;;;;;;26.22;45.24;100440.06;112167;1205;109399;-77
2021/08/25 07:20:22;;;;;;;9.60;5.80;;;;;;;27.11;43.32;100442.16;112043;1205;137016;-77
2021/08/25 07:23:50;;;;;;;10.00;5.70;;;;;;;27.20;42.32;100443.45;112081;1214;107595;-76
2021/08/25 07:26:57;;;;;;;7.30;5.50;;;;;;;27.33;41.30;100439.83;112017;1213;137207;-77
2021/08/25 07:30:08;;;;;;;6.80;5.00;;;;;;;27.80;40.41;100432.70;112152;1208;95768;-74
2021/08/25 07:32:56;;;;;;;10.50;5.20;;;;;;;28.63;39.36;100431.16;112199;1203;136806;-76
2021/08/25 07:36:04;;;;;;;7.00;5.10;;;;;;;29.71;38.82;100429.75;112300;1202;104936;-77
2021/08/25 07:38:55;;;;;;;8.10;4.90;;;;;;;30.74;37.36;100430.02;112222;1208;136805;-77
2021/08/25 07:41:46;;;;;;;7.80;5.60;;;;;;;30.59;36.41;100424.55;112309;1209;94844;-77
2021/08/25 07:44:36;;;;;;;7.90;5.30;;;;;;;30.21;36.44;100424.59;112156;1202;136658;-77
2021/08/25 07:47:38;;;;;;;7.80;5.00;;;;;;;30.03;36.29;100419.86;112324;1205;107513;-77
2021/08/25 07:50:26;;;;;;;8.40;5.10;;;;;;;30.11;36.27;100421.55;112179;1202;136863;-77
2021/08/25 07:53:14;;;;;;;8.10;5.20;;;;;;;30.63;35.46;100416.22;112245;1201;108438;-77
2021/08/25 07:56:02;;;;;;;7.20;5.10;;;;;;;30.86;34.81;100411.77;112128;1209;136772;-77
2021/08/25 07:58:58;;;;;;;8.40;4.90;;;;;;;30.60;34.57;100408.98;112315;1203;94813;-77
2021/08/25 08:02:03;;;;;;;7.50;5.20;;;;;;;30.29;34.50;100409.46;112177;1203;136687;-76
2021/08/25 08:05:02;;;;;;;;;;;;;;;;;;;;;
2021/08/25 08:08:16;;;;;;;6.60;4.70;;;;;;;30.29;33.68;100408.72;112162;1209;136813;-76
2021/08/25 08:11:31;;;;;;;7.00;4.60;;;;;;;30.22;33.61;100402.54;112425;1202;94856;-77
2021/08/25 08:14:34;;;;;;;7.60;4.80;;;;;;;30.56;33.15;100400.64;112293;1200;136788;-77
2021/08/25 08:18:30;;;;;;;5.00;4.00;;;;;;;30.70;32.33;100400.75;112427;1207;108585;-76
2021/08/25 08:21:46;;;;;;;6.20;4.30;;;;;;;30.21;31.80;100397.95;112216;1208;137006;-77
2021/08/25 08:25:06;;;;;;;5.70;4.60;;;;;;;30.01;32.19;100394.28;112426;1200;106304;-77
2021/08/25 08:28:18;;;;;;;7.00;4.60;;;;;;;30.35;32.03;100401.42;112359;1201;94970;-76
2021/08/25 08:31:10;;;;;;;6.70;4.60;;;;;;;30.40;31.62;100396.05;112337;1200;94943;-76
2021/08/25 08:34:08;;;;;;;6.80;4.60;;;;;;;30.32;31.69;100392.77;112298;1199;137025;-77
2021/08/25 08:37:22;;;;;;;6.70;4.90;;;;;;;30.28;31.00;100387.48;112366;1200;104491;-76
2021/08/25 08:40:33;;;;;;;7.40;5.20;;;;;;;30.02;31.04;100382.17;112343;1208;107381;-76
2021/08/25 08:43:54;;;;;;;;;;;;;;;;;;;;;
2021/08/25 08:46:42;;;;;;;10.10;6.80;;;;;;;29.63;31.56;100374.66;112189;1201;136535;-74
2021/08/25 08:49:30;;;;;;;8.00;5.50;;;;;;;30.14;31.57;100371.02;112315;1200;107305;-78
2021/08/25 08:52:22;;;;;;;7.80;5.00;;;;;;;30.46;30.86;100368.30;112181;1202;137031;-77
2021/08/25 08:55:38;;;;;;;8.10;5.20;;;;;;;30.33;29.80;100365.09;112358;1200;106253;-77
2021/08/25 08:59:07;;;;;;;8.80;6.10;;;;;;;30.10;29.89;100360.39;112254;1201;136842;-77
2021/08/25 09:02:59;;;;;;;7.30;5.00;;;;;;;30.18;29.40;100347.80;112398;1200;95056;-77
2021/08/25 09:06:08;;;;;;;6.50;5.30;;;;;;;30.05;29.38;100344.77;112478;1200;108473;-77
2021/08/25 09:09:19;;;;;;;8.00;5.00;;;;;;;30.53;29.15;100341.98;112273;1207;137363;-77
2021/08/25 09:12:12;;;;;;;8.00;4.80;;;;;;;30.74;29.07;100337.68;112303;1200;108557;-77
2021/08/25 09:15:27;;;;;;;6.00;4.90;;;;;;;31.12;29.50;100332.23;112175;1208;137138;-77
2021/08/25 09:18:20;;;;;;;7.10;5.40;;;;;;;31.22;27.88;100331.27;112311;1208;94974;-77
2021/08/25 09:21:09;;;;;;;9.40;5.80;;;;;;;31.03;28.23;100327.71;112218;1201;137018;-77
2021/08/25 09:23:56;;;;;;;7.30;5.50;;;;;;;30.76;28.48;100333.65;112307;1208;106140;-77
2021/08/25 09:27:07;;;;;;;7.20;4.80;;;;;;;30.14;27.95;100331.91;112294;1202;106086;-77
2021/08/25 09:29:59;;;;;;;6.90;5.20;;;;;;;29.79;28.57;100328.31;112394;1200;94928;-76
2021/08/25 09:32:53;;;;;;;6.90;4.90;;;;;;;29.87;28.89;100322.82;112427;1200;94871;-76
2021/08/25 09:35:44;;;;;;;8.10;4.50;;;;;;;29.74;28.99;100316.35;112212;1208;136631;-75
2021/08/25 09:38:45;;;;;;;;;;;;;;;;;;;;;
2021/08/25 09:41:56;;;;;;;7.80;4.40;;;;;;;28.31;29.47;100308.75;112508;1196;136878;-78
2021/08/25 09:45:06;;;;;;;6.00;4.00;;;;;;;27.61;29.09;100299.98;112856;1203;94803;-76
2021/08/25 09:47:57;;;;;;;5.40;4.10;;;;;;;26.54;28.38;100304.70;112727;1203;136553;-76
2021/08/25 09:51:30;;;;;;;5.80;3.90;;;;;;;25.82;29.76;100297.85;112865;1203;109314;-76
2021/08/25 09:55:11;;;;;;;;;;;;;;;;;;;;;
2021/08/25 09:58:24;;;;;;;6.00;3.60;;;;;;;25.92;30.38;100285.20;112378;1206;137307;-76
2021/08/25 10:02:18;;;;;;;5.60;3.70;;;;;;;26.02;31.09;100281.96;112580;1199;95349;-76
2021/08/25 10:05:25;;;;;;;5.00;3.70;;;;;;;25.98;31.38;100278.89;112432;1206;137114;-76
2021/08/25 10:08:59;;;;;;;6.20;3.80;;;;;;;25.85;30.97;100277.25;112534;1206;108467;-77
2021/08/25 10:12:41;;;;;;;4.80;3.90;;;;;;;25.37;30.92;100275.45;112183;1210;137255;-77
2021/08/25 10:16:34;;;;;;;4.50;3.60;;;;;;;24.77;31.68;100271.20;112262;1202;107389;-77
2021/08/25 10:20:29;;;;;;;5.00;3.40;;;;;;;24.39;32.03;100260.73;112139;1214;94972;-76
2021/08/25 10:24:22;;;;;;;4.50;3.00;;;;;;;24.02;32.30;100260.52;111840;1208;136844;-76
2021/08/25 10:27:51;;;;;;;4.50;2.90;;;;;;;23.45;31.96;100255.25;112046;1208;109693;-76
2021/08/25 10:31:16;;;;;;;4.20;2.70;;;;;;;22.86;32.86;100253.35;111902;1210;137542;-76
2021/08/25 10:35:16;;;;;;;4.30;2.80;;;;;;;22.44;33.73;100249.25;112043;1208;107429;-76
2021/08/25 10:39:07;;;;;;;;;;;;;;;;;;;;;
2021/08/25 10:43:24;;;;;;;4.30;3.10;;;;;;;22.12;35.61;100237.48;111933;1209;136847;-76
2021/08/25 10:47:08;;;;;;;;;;;;;;;;;;;;;
2021/08/25 10:51:19;;;;;;;;;;;;;;;;;;;;;
2021/08/25 10:54:45;;;;;;;2.80;1.70;;;;;;;21.83;36.39;100232.64;111882;1209;136962;-76
2021/08/25 10:58:59;;;;;;;;;;;;;;;;;;;;;
2021/08/25 11:02:44;;;;;;;;;;;;;;;;;;;;;
2021/08/25 11:05:58;;;;;;;1.90;1.60;;;;;;;21.36;35.94;100209.33;111934;1210;137524;-77
2021/08/25 11:14:28;;;;;;;;;;;;;;;;;;;;;
2021/08/25 11:18:10;;;;;;;;;;;;;;;;;;;;;
2021/08/25 11:22:22;;;;;;;;;;;;;;;;;;;;;
2021/08/25 11:25:46;;;;;;;4.00;2.50;;;;;;;21.17;37.57;100193.59;111633;1212;136893;-76
2021/08/25 11:30:03;;;;;;;4.30;2.00;;;;;;;21.01;37.28;100186.52;111786;1211;108279;-77
2021/08/25 11:34:09;;;;;;;3.20;2.30;;;;;;;21.01;38.00;100182.77;111950;1209;108804;-77
2021/08/25 11:41:58;;;;;;;;;;;;;;;;;;;;;
2021/08/25 11:46:15;;;;;;;3.40;2.20;;;;;;;20.80;37.78;100174.36;111843;1211;108514;-76
2021/08/25 11:49:37;;;;;;;3.90;2.60;;;;;;;20.71;37.96;100173.65;111509;1214;137451;-76
2021/08/25 11:53:42;;;;;;;;;;;;;;;;;;;;;
2021/08/25 12:05:09;;;;;;;2.50;1.80;;;;;;;19.82;38.67;100155.40;112599;1198;93966;-76
2021/08/25 12:17:04;;;;;;;3.00;2.40;;;;;;;19.18;40.25;100135.08;112122;1209;107029;-77
2021/08/25 12:20:56;;;;;;;4.30;2.90;;;;;;;19.48;40.61;100126.63;111888;1208;136946;-78
2021/08/25 12:24:49;;;;;;;3.00;2.10;;;;;;;19.75;39.94;100117.15;112041;1209;94184;-76
2021/08/25 12:28:41;;;;;;;2.80;2.00;;;;;;;20.02;39.93;100108.23;111982;1208;136681;-77
2021/08/25 12:32:51;;;;;;;3.60;1.80;;;;;;;20.48;39.64;100107.33;111969;1215;136779;-76
2021/08/25 12:37:12;;;;;;;4.20;2.30;;;;;;;20.41;39.38;100103.27;111781;1212;107715;-76
2021/08/25 12:40:49;;;;;;;3.20;2.10;;;;;;;20.22;39.25;100098.98;111851;1218;108512;-76
2021/08/25 12:44:10;;;;;;;3.40;2.00;;;;;;;20.13;39.41;100096.86;111982;1212;95060;-77
2021/08/25 12:47:46;;;;;;;5.30;2.50;;;;;;;19.79;39.75;100091.96;112041;1209;94909;-77
2021/08/25 12:51:44;;;;;;;;;;;;;;;;;;;;;
2021/08/25 12:55:24;;;;;;;3.00;2.50;;;;;;;19.40;40.90;100086.31;112224;1204;107229;-77
2021/08/25 12:59:25;;;;;;;4.80;2.70;;;;;;;19.27;41.30;100088.29;112032;1205;137000;-77
2021/08/25 13:03:16;;;;;;;4.10;2.40;;;;;;;19.12;41.54;100084.21;111756;1211;137238;-76
2021/08/25 13:07:49;;;;;;;5.30;2.40;;;;;;;19.00;41.77;100080.82;111929;1209;94834;-77
2021/08/25 13:12:02;;;;;;;4.00;2.60;;;;;;;18.84;41.98;100081.61;111330;1222;136862;-77
2021/08/25 13:15:48;;;;;;;2.90;2.50;;;;;;;18.55;42.30;100076.16;111823;1210;139827;-75
2021/08/25 13:20:07;;;;;;;;;;;;;;;;;;;;;
2021/08/25 13:28:29;;;;;;;5.40;3.40;;;;;;;18.44;43.05;100056.15;110787;1219;137267;-75
2021/08/25 13:31:42;;;;;;;4.60;3.20;;;;;;;18.40;43.10;100051.44;110392;1224;110025;-76
2021/08/25 13:36:13;;;;;;;7.70;4.30;;;;;;;18.34;43.04;100048.73;110156;1228;137051;-76
2021/08/25 13:47:51;;;;;;;8.50;4.30;;;;;;;18.13;44.06;100041.14;111366;1221;636172;-77
2021/08/25 13:51:27;;;;;;;;;;;;;;;;;;;;;
2021/08/25 13:55:37;;;;;;;8.80;4.10;;;;;;;17.97;44.81;100032.35;112164;1207;94013;-77
2021/08/25 13:59:05;;;;;;;;;;;;;;;;;;;;;
2021/08/25 14:02:43;;;;;;;;;;;;;;;;;;;;;
2021/08/25 14:07:19;;;;;;;5.70;4.50;;;;;;;17.67;46.03;100012.89;111475;1223;108353;-78
2021/08/25 14:10:53;;;;;;;;;;;;;;;;;;;;;
2021/08/25 14:14:45;;;;;;;;;;;;;;;;;;;;;
2021/08/25 14:18:04;;;;;;;7.80;5.70;;;;;;;17.51;47.06;99994.19;110574;1224;136464;-77
2021/08/25 14:21:50;;;;;;;9.10;5.40;;;;;;;17.57;47.26;99984.88;110666;1229;104960;-76
2021/08/25 14:30:06;;;;;;;;;;;;;;;;;;;;;
2021/08/25 14:33:58;;;;;;;6.10;3.80;;;;;;;17.68;47.35;99965.51;110186;1226;94894;-76
2021/08/25 14:37:35;;;;;;;;;;;;;;;;;;;;;
2021/08/25 14:41:17;;;;;;;3.90;3.30;;;;;;;17.85;47.53;99954.36;111134;1218;137332;-78
2021/08/25 14:45:00;;;;;;;;;;;;;;;;;;;;;
2021/08/25 14:49:42;;;;;;;4.50;3.20;;;;;;;17.99;47.36;99936.73;111295;1214;137037;-77
2021/08/25 14:57:23;;;;;;;;;;;;;;;;;;;;;
2021/08/25 15:01:54;;;;;;;4.90;3.30;;;;;;;17.41;47.43;99927.14;110381;1229;137027;-77
2021/08/25 15:05:40;;;;;;;6.00;3.10;;;;;;;17.26;47.99;99919.77;109955;1232;137044;-76
2021/08/25 15:17:23;;;;;;;6.80;3.40;;;;;;;16.88;48.51;99910.72;109598;1238;107245;-78
2021/08/25 15:20:29;;;;;;;5.30;3.20;;;;;;;16.80;49.10;99905.79;111482;1214;635264;-76
2021/08/25 15:24:16;;;;;;;3.90;3.00;;;;;;;16.81;49.32;99905.58;112276;1208;137055;-76
2021/08/25 15:28:24;;;;;;;;;;;;;;;;;;;;;
2021/08/25 15:32:44;;;;;;;;;;;;;;;;;;;;;
2021/08/25 15:36:14;;;;;;;;;;;;;;;;;;;;;
2021/08/25 15:44:35;;;;;;;5.70;2.70;;;;;;;16.26;50.56;99896.86;111396;1214;136410;-77
2021/08/25 15:48:15;;;;;;;5.30;2.60;;;;;;;16.19;50.97;99889.73;111017;1225;137248;-77
2021/08/25 15:52:09;;;;;;;;;;;;;;;;;;;;;
2021/08/25 16:00:47;;;;;;;6.00;2.80;;;;;;;16.27;51.02;99880.15;110262;1223;136865;-78
2021/08/25 16:08:14;;;;;;;4.40;2.30;;;;;;;16.28;51.22;99863.21;109676;1235;136328;-76
2021/08/25 16:16:01;;;;;;;;;;;;;;;;;;;;;
2021/08/25 16:20:25;;;;;;;6.20;2.90;;;;;;;16.01;51.63;99839.52;110053;1225;135624;-77
2021/08/25 16:24:30;;;;;;;5.00;3.00;;;;;;;15.95;51.63;99828.11;110076;1232;94936;-76
2021/08/25 16:28:36;;;;;;;4.70;2.60;;;;;;;15.82;51.79;99825.58;110233;1228;94943;-76
2021/08/25 16:32:06;;;;;;;;;;;;;;;;;;;;;
2021/08/25 16:36:38;;;;;;;5.70;2.80;;;;;;;15.58;52.03;99819.78;110053;1232;107060;-76
2021/08/25 16:40:12;;;;;;;;;;;;;;;;;;;;;
2021/08/25 16:44:43;;;;;;;4.90;3.20;;;;;;;15.40;52.76;99805.56;109813;1234;136977;-76
2021/08/25 16:52:29;;;;;;;5.70;3.20;;;;;;;15.25;53.65;99801.95;109551;1237;110842;-76
2021/08/25 17:00:04;;;;;;;;;;;;;;;;;;;;;
2021/08/25 17:07:52;;;;;;;;;;;;;;;;;;;;;
2021/08/25 17:11:54;;;;;;;4.40;3.30;;;;;;;14.84;55.03;99796.07;112386;1209;93975;-77
2021/08/25 17:15:51;;;;;;;;;;;;;;;;;;;;;
2021/08/25 17:19:19;;;;;;;8.40;3.40;;;;;;;14.72;55.64;99795.73;111984;1208;136688;-77
2021/08/25 17:22:58;;;;;;;;;;;;;;;;;;;;;
2021/08/25 17:27:00;;;;;;;6.60;3.50;;;;;;;14.59;56.15;99782.11;112100;1205;137041;-77
2021/08/25 17:30:42;;;;;;;;;;;;;;;;;;;;;
2021/08/25 17:34:52;;;;;;;3.90;2.60;;;;;;;14.44;57.03;99775.39;112266;1204;94003;-77
2021/08/25 17:38:28;;;;;;;6.10;3.20;;;;;;;14.36;57.39;99771.64;112011;1207;136959;-78
2021/08/25 17:42:15;;;;;;;;;;;;;;;;;;;;;
2021/08/25 17:46:21;;;;;;;;;;;;;;;;;;;;;
2021/08/25 17:50:35;;;;;;;6.10;3.30;;;;;;;14.12;58.61;99754.77;111825;1218;137170;-77
2021/08/25 18:03:34;;;;;;;8.10;3.70;;;;;;;13.94;59.42;99740.36;111488;1219;137690;-77
2021/08/25 18:07:55;;;;;;;6.00;3.40;;;;;;;13.93;59.33;99735.20;111400;1214;111020;-77
2021/08/25 18:16:00;;;;;;;7.60;4.50;;;;;;;13.86;59.82;99729.23;110861;1225;136725;-77
2021/08/25 18:31:44;;;;;;;8.50;4.70;;;;;;;13.82;60.02;99723.49;111264;1221;636429;-76
2021/08/25 18:35:52;;;;;;;8.30;4.40;;;;;;;13.80;60.31;99722.05;112092;1210;136572;-77
2021/08/25 18:40:22;;;;;;;7.10;4.30;;;;;;;13.79;60.29;99710.23;111966;1209;136626;-77
2021/08/25 18:44:30;;;;;;;8.70;5.10;;;;;;;13.77;60.48;99705.43;111828;1216;108085;-78
2021/08/25 19:13:26;;;;;;;8.60;4.50;;;;;;;13.71;61.09;99658.45;111118;1222;660248;-77
2021/08/25 19:17:10;;;;;;;10.00;4.70;;;;;;;13.67;61.12;99656.37;112044;1206;137069;-78
2021/08/25 19:21:19;;;;;;;8.60;5.10;;;;;;;13.68;61.25;99648.69;111966;1210;94195;-76
2021/08/25 19:25:29;;;;;;;11.10;5.30;;;;;;;13.66;61.55;99641.23;111661;1221;108228;-77
2021/08/25 19:29:37;;;;;;;11.90;5.60;;;;;;;13.63;61.71;99633.34;110923;1220;136900;-77
2021/08/25 19:37:25;;;;;;;;;;;;;;;;;;;;;
2021/08/25 19:41:57;;;;;;;8.10;4.70;;;;;;;13.61;61.73;99615.64;110384;1230;95238;-77
2021/08/25 19:53:39;;;;;;;;;;;;;;;;;;;;;
2021/08/25 19:58:12;;;;;;;7.80;5.10;;;;;;;13.59;62.00;99599.89;111439;1221;636647;-77
2021/08/25 20:02:20;;;;;;;9.60;5.30;;;;;;;13.53;62.08;99593.02;112192;1203;136490;-78
2021/08/25 20:06:19;;;;;;;;;;;;;;;;;;;;;
2021/08/25 20:10:10;;;;;;;10.60;5.30;;;;;;;13.47;62.46;99591.28;111919;1212;108107;-77
2021/08/25 20:14:20;;;;;;;9.20;4.70;;;;;;;13.48;62.78;99594.02;111909;1217;137183;-76
2021/08/25 20:18:27;;;;;;;;;;;;;;;;;;;;;
2021/08/25 20:22:22;;;;;;;;;;;;;;;;;;;;;
2021/08/25 20:26:14;;;;;;;;;;;;;;;;;;;;;
2021/08/25 20:30:27;;;;;;;8.70;5.20;;;;;;;13.36;63.48;99568.29;111010;1218;107840;-77
2021/08/25 20:38:39;;;;;;;8.20;5.20;;;;;;;13.30;63.50;99556.04;111451;1220;636214;-77
2021/08/25 20:42:30;;;;;;;8.90;5.60;;;;;;;13.29;63.76;99554.19;112198;1207;93946;-78
2021/08/25 20:46:41;;;;;;;8.40;5.00;;;;;;;13.24;63.69;99548.52;112151;1209;94012;-77
2021/08/25 20:50:32;;;;;;;;;;;;;;;;;;;;;
2021/08/25 20:58:41;;;;;;;11.10;6.20;;;;;;;13.23;64.26;99526.04;111895;1213;136728;-76
2021/08/25 21:02:36;;;;;;;9.20;6.10;;;;;;;13.19;64.48;99520.52;111852;1212;136742;-77
2021/08/25 21:06:46;;;;;;;11.30;6.80;;;;;;;13.15;64.82;99510.08;111629;1216;94663;-77
2021/08/25 21:10:54;;;;;;;10.70;6.80;;;;;;;13.10;64.93;99503.52;111214;1223;136310;-77
2021/08/25 21:14:54;;;;;;;;;;;;;;;;;;;;;
2021/08/25 21:27:53;;;;;;;11.30;7.10;;;;;;;12.92;66.16;99474.99;110102;1230;136541;-78
2021/08/25 21:39:12;;;;;;;11.10;6.70;;;;;;;12.86;66.77;99456.48;111489;1216;636219;-77
2021/08/25 21:43:23;;;;;;;11.00;7.10;;;;;;;12.83;67.20;99452.27;112374;1208;93956;-76
2021/08/25 21:47:22;;;;;;;;;;;;;;;;;;;;;
2021/08/25 21:51:24;;;;;;;9.70;6.30;;;;;;;12.77;67.53;99438.71;112680;1204;136881;-76
2021/08/25 21:55:32;;;;;;;9.00;5.90;;;;;;;12.73;67.96;99439.19;112386;1202;106164;-76
2021/08/25 22:03:49;;;;;;;9.50;6.40;;;;;;;12.67;68.19;99425.73;112082;1206;137217;-76
2021/08/25 22:07:53;;;;;;;9.00;6.20;;;;;;;12.67;68.10;99418.63;112007;1210;93921;-77
2021/08/25 22:12:04;;;;;;;10.00;6.60;;;;;;;12.65;68.41;99409.67;111985;1212;108066;-77
2021/08/25 22:32:17;;;;;;;;;;;;;;;;;;;;;
2021/08/25 22:36:27;;;;;;;12.40;6.80;;;;;;;12.66;68.73;99349.79;112190;1205;135954;-76
2021/08/25 22:48:45;;;;;;;;;;;;;;;;;;;;;
2021/08/25 22:52:43;;;;;;;;;;;;;;;;;;;;;
2021/08/25 23:01:12;;;;;;;10.50;6.10;;;;;;;12.73;68.92;99302.28;111422;1214;635373;-76
2021/08/25 23:05:15;;;;;;;;;;;;;;;;;;;;;
2021/08/25 23:09:24;;;;;;;9.40;6.70;;;;;;;12.79;68.89;99295.88;112106;1209;94088;-76
2021/08/25 23:13:38;;;;;;;10.50;6.10;;;;;;;12.80;68.79;99290.09;111878;1213;136009;-78
2021/08/25 23:38:11;;;;;;;9.50;6.50;;;;;;;12.91;68.60;99267.03;112219;1203;94516;-76
2021/08/25 23:42:18;;;;;;;9.50;6.80;;;;;;;12.93;68.90;99262.25;111951;1209;136850;-77
2021/08/25 23:50:35;;;;;;;9.40;6.40;;;;;;;12.90;68.72;99253.69;110716;1219;137061;-77
2021/08/25 23:59:11;;;;;;;11.70;7.10;;;;;;;12.91;68.98;99242.45;109668;1230;93923;-77
